createdAt,value
2019-02-17T00:00:41.813Z,6.21
2019-02-17T00:03:33.387Z,6.15
2019-02-17T00:06:23.751Z,6.08
2019-02-17T00:09:14.749Z,6.00
2019-02-17T00:12:04.906Z,5.96
2019-02-17T00:14:54.227Z,5.91
2019-02-17T00:17:44.194Z,5.85
2019-02-17T00:20:34.025Z,5.83
2019-02-17T00:23:24.445Z,5.86
2019-02-17T00:26:14.651Z,6.00
2019-02-17T00:29:04.244Z,6.16
2019-02-17T00:31:54.351Z,6.31
2019-02-17T00:34:45.396Z,6.46
2019-02-17T00:37:35.397Z,6.53
2019-02-17T00:40:25.351Z,6.59
2019-02-17T00:43:15.388Z,6.64
2019-02-17T00:46:05.358Z,6.68
2019-02-17T00:48:55.138Z,6.69
2019-02-17T00:51:45.229Z,6.65
2019-02-17T00:54:35.117Z,6.60
2019-02-17T00:57:24.918Z,6.56
2019-02-17T01:00:15.304Z,6.47
2019-02-17T01:03:05.667Z,6.40
2019-02-17T01:05:55.491Z,6.31
2019-02-17T01:08:45.505Z,6.29
2019-02-17T01:11:34.990Z,6.24
2019-02-17T01:14:25.071Z,6.18
2019-02-17T01:17:14.998Z,6.12
2019-02-17T01:20:05.847Z,6.06
2019-02-17T01:22:55.499Z,6.01
2019-02-17T01:25:45.856Z,5.95
2019-02-17T01:28:35.928Z,5.87
2019-02-17T01:31:25.618Z,5.79
2019-02-17T01:34:15.718Z,5.72
2019-02-17T01:37:06.212Z,5.65
2019-02-17T01:39:56.343Z,5.59
2019-02-17T01:42:46.533Z,5.54
2019-02-17T01:45:36.358Z,5.47
2019-02-17T01:48:26.085Z,5.44
2019-02-17T01:51:16.733Z,5.36
2019-02-17T01:54:06.705Z,5.34
2019-02-17T01:56:56.757Z,5.30
2019-02-17T01:59:46.120Z,5.29
2019-02-17T02:02:36.224Z,5.28
2019-02-17T02:05:26.075Z,5.23
2019-02-17T02:08:15.727Z,5.16
2019-02-17T02:11:06.379Z,5.12
2019-02-17T02:13:56.389Z,5.10
2019-02-17T02:16:46.119Z,5.07
2019-02-17T02:19:35.978Z,5.01
2019-02-17T02:22:25.482Z,4.98
2019-02-17T02:25:15.432Z,5.00
2019-02-17T02:28:05.246Z,4.96
2019-02-17T02:30:54.635Z,4.92
2019-02-17T02:33:47.395Z,4.89
2019-02-17T02:36:37.402Z,4.85
2019-02-17T02:39:27.684Z,4.82
2019-02-17T02:42:17.940Z,4.79
2019-02-17T02:45:09.088Z,4.76
2019-02-17T02:47:58.822Z,4.77
2019-02-17T02:50:48.839Z,4.74
2019-02-17T02:53:39.009Z,4.71
2019-02-17T02:56:28.942Z,4.72
2019-02-17T02:59:19.087Z,4.72
2019-02-17T03:02:08.909Z,4.69
2019-02-17T03:04:59.093Z,4.69
2019-02-17T03:07:49.217Z,4.74
2019-02-17T03:10:38.851Z,4.76
2019-02-17T03:13:28.586Z,4.76
2019-02-17T03:16:18.451Z,4.74
2019-02-17T03:19:08.590Z,4.75
2019-02-17T03:21:58.371Z,4.75
2019-02-17T03:24:48.112Z,4.72
2019-02-17T03:27:37.860Z,4.71
2019-02-17T03:30:27.642Z,4.69
2019-02-17T03:33:17.875Z,4.67
2019-02-17T03:36:08.229Z,4.66
2019-02-17T03:38:57.972Z,4.64
2019-02-17T03:41:48.131Z,4.60
2019-02-17T03:44:37.992Z,4.57
2019-02-17T03:47:28.038Z,4.54
2019-02-17T03:50:18.134Z,4.56
2019-02-17T03:53:08.335Z,4.55
2019-02-17T03:55:58.116Z,4.55
2019-02-17T03:58:47.968Z,4.52
2019-02-17T04:01:37.682Z,4.48
2019-02-17T04:04:27.510Z,4.49
2019-02-17T04:07:17.407Z,4.50
2019-02-17T04:10:08.315Z,4.56
2019-02-17T04:12:58.484Z,4.61
2019-02-17T04:15:49.097Z,4.65
2019-02-17T04:18:39.910Z,4.65
2019-02-17T04:21:29.631Z,4.63
2019-02-17T04:24:19.682Z,4.61
2019-02-17T04:27:09.181Z,4.58
2019-02-17T04:29:59.301Z,4.51
2019-02-17T04:32:49.373Z,4.46
2019-02-17T04:35:39.157Z,4.41
2019-02-17T04:38:29.420Z,4.35
2019-02-17T04:41:19.783Z,4.32
2019-02-17T04:44:10.472Z,4.28
2019-02-17T04:47:01.467Z,4.26
2019-02-17T04:49:50.894Z,4.21
2019-02-17T04:52:40.466Z,4.17
2019-02-17T04:55:30.611Z,4.14
2019-02-17T04:58:20.644Z,4.10
2019-02-17T05:01:10.354Z,4.06
2019-02-17T05:04:00.295Z,4.03
2019-02-17T05:06:50.461Z,3.99
2019-02-17T05:09:40.325Z,3.98
2019-02-17T05:12:30.047Z,4.00
2019-02-17T05:15:20.039Z,4.05
2019-02-17T05:18:10.277Z,4.08
2019-02-17T05:21:00.332Z,4.11
2019-02-17T05:23:50.394Z,4.09
2019-02-17T05:26:40.481Z,4.09
2019-02-17T05:29:30.804Z,4.07
2019-02-17T05:32:20.712Z,4.07
2019-02-17T05:35:10.820Z,4.05
2019-02-17T05:38:00.596Z,4.03
2019-02-17T05:40:50.394Z,4.02
2019-02-17T05:43:40.378Z,4.00
2019-02-17T05:46:32.064Z,4.00
2019-02-17T05:49:21.905Z,3.98
2019-02-17T05:52:11.797Z,4.00
2019-02-17T05:55:01.450Z,4.01
2019-02-17T05:57:51.325Z,3.99
2019-02-17T06:00:41.605Z,3.97
2019-02-17T06:03:31.545Z,3.95
2019-02-17T06:06:21.391Z,3.93
2019-02-17T06:09:11.434Z,3.92
2019-02-17T06:12:01.020Z,3.89
2019-02-17T06:14:51.066Z,3.89
2019-02-17T06:17:40.893Z,3.89
2019-02-17T06:20:30.835Z,3.90
2019-02-17T06:23:20.942Z,3.87
2019-02-17T06:26:11.869Z,3.90
2019-02-17T06:29:01.628Z,3.89
2019-02-17T06:31:51.367Z,3.89
2019-02-17T06:34:41.262Z,3.89
2019-02-17T06:37:31.384Z,3.88
2019-02-17T06:40:21.011Z,3.89
2019-02-17T06:43:11.217Z,3.90
2019-02-17T06:46:01.436Z,3.92
2019-02-17T06:48:51.384Z,3.97
2019-02-17T06:51:41.229Z,4.04
2019-02-17T06:54:31.671Z,4.09
2019-02-17T06:57:29.212Z,4.18
2019-02-17T07:00:31.943Z,4.45
2019-02-17T07:03:21.641Z,5.07
2019-02-17T07:06:16.247Z,5.92
2019-02-17T07:09:07.420Z,6.84
2019-02-17T07:11:57.540Z,7.75
2019-02-17T07:14:47.066Z,8.58
2019-02-17T07:17:37.169Z,9.41
2019-02-17T07:20:27.468Z,10.22
2019-02-17T07:23:17.423Z,10.98
2019-02-17T07:26:07.303Z,11.75
2019-02-17T07:28:57.330Z,12.41
2019-02-17T07:31:47.388Z,12.95
2019-02-17T07:34:37.183Z,13.28
2019-02-17T07:37:33.402Z,13.55
2019-02-17T07:40:18.233Z,13.40
2019-02-17T07:43:08.299Z,13.05
2019-02-17T07:45:58.187Z,12.76
2019-02-17T07:48:48.408Z,12.55
2019-02-17T07:51:38.121Z,12.36
2019-02-17T07:54:28.217Z,12.13
2019-02-17T07:57:18.823Z,11.88
2019-02-17T08:00:09.128Z,11.64
2019-02-17T08:02:58.891Z,11.47
2019-02-17T08:05:48.406Z,11.28
2019-02-17T08:08:38.032Z,11.17
2019-02-17T08:11:28.530Z,11.01
2019-02-17T08:14:18.417Z,10.87
2019-02-17T08:17:08.218Z,10.64
2019-02-17T08:19:58.001Z,10.37
2019-02-17T08:22:48.058Z,10.49
2019-02-17T08:25:37.933Z,11.03
2019-02-17T08:28:27.969Z,11.61
2019-02-17T08:31:17.832Z,12.21
2019-02-17T08:34:08.202Z,12.67
2019-02-17T08:36:58.095Z,12.99
2019-02-17T08:39:47.188Z,13.51
2019-02-17T08:42:37.029Z,13.63
2019-02-17T08:45:27.090Z,13.67
2019-02-17T08:48:17.092Z,13.59
2019-02-17T08:51:07.089Z,13.51
2019-02-17T08:53:57.079Z,13.47
2019-02-17T08:56:47.098Z,13.30
2019-02-17T08:59:36.926Z,13.27
2019-02-17T09:02:25.956Z,13.17
2019-02-17T09:05:15.676Z,13.31
2019-02-17T09:08:05.783Z,13.42
2019-02-17T09:10:55.667Z,13.59
2019-02-17T09:13:48.308Z,13.90
2019-02-17T09:16:37.900Z,13.94
2019-02-17T09:19:27.647Z,13.95
2019-02-17T09:22:18.122Z,14.08
2019-02-17T09:25:10.103Z,14.52
2019-02-17T09:27:59.660Z,14.99
2019-02-17T09:30:49.330Z,15.25
2019-02-17T09:33:39.349Z,15.36
2019-02-17T09:36:28.810Z,15.60
2019-02-17T09:39:18.586Z,15.79
2019-02-17T09:42:08.713Z,15.88
2019-02-17T09:44:59.373Z,16.29
2019-02-17T09:47:49.732Z,16.72
2019-02-17T09:50:39.701Z,16.94
2019-02-17T09:53:29.481Z,16.92
2019-02-17T09:56:19.311Z,17.11
2019-02-17T09:59:09.249Z,17.67
2019-02-17T10:01:59.279Z,18.36
2019-02-17T10:04:49.073Z,19.29
2019-02-17T10:07:38.960Z,20.37
2019-02-17T10:10:29.188Z,20.88
2019-02-17T10:13:19.255Z,21.69
2019-02-17T10:16:08.919Z,21.08
2019-02-17T10:18:58.565Z,21.85
2019-02-17T10:21:48.306Z,22.26
2019-02-17T10:24:37.901Z,22.13
2019-02-17T10:27:27.637Z,22.40
2019-02-17T10:30:18.275Z,22.46
2019-02-17T10:33:09.379Z,22.16
2019-02-17T10:35:59.618Z,21.91
2019-02-17T10:38:49.473Z,21.80
2019-02-17T10:41:39.273Z,21.53
2019-02-17T10:44:28.828Z,21.56
2019-02-17T10:47:18.399Z,21.54
2019-02-17T10:50:10.226Z,21.80
2019-02-17T10:53:00.127Z,22.23
2019-02-17T10:55:50.211Z,22.47
2019-02-17T10:58:40.401Z,22.91
2019-02-17T11:01:30.645Z,23.40
2019-02-17T11:04:20.391Z,24.16
2019-02-17T11:07:10.319Z,24.91
2019-02-17T11:10:00.288Z,25.32
2019-02-17T11:12:49.774Z,25.79
2019-02-17T11:15:39.880Z,26.08
2019-02-17T11:18:29.964Z,26.67
2019-02-17T11:21:19.979Z,27.34
2019-02-17T11:24:09.930Z,27.72
2019-02-17T11:26:59.675Z,28.16
2019-02-17T11:29:49.488Z,28.63
2019-02-17T11:32:38.974Z,28.98
2019-02-17T11:35:29.889Z,29.43
2019-02-17T11:38:20.380Z,29.60
2019-02-17T11:41:12.528Z,29.71
2019-02-17T11:44:01.891Z,29.71
2019-02-17T11:46:52.055Z,29.95
2019-02-17T11:49:41.824Z,30.40
2019-02-17T11:52:31.497Z,30.67
2019-02-17T11:55:22.776Z,30.91
2019-02-17T11:58:12.802Z,31.20
2019-02-17T12:01:05.167Z,31.38
2019-02-17T12:03:53.934Z,31.44
2019-02-17T12:06:43.768Z,31.21
2019-02-17T12:09:33.705Z,31.11
2019-02-17T12:12:23.794Z,31.33
2019-02-17T12:15:14.524Z,31.37
2019-02-17T12:18:04.643Z,31.53
2019-02-17T12:21:03.825Z,31.83
2019-02-17T12:24:17.848Z,32.08
2019-02-17T12:27:28.108Z,32.09
2019-02-17T12:30:21.666Z,31.84
2019-02-17T12:33:19.147Z,31.85
2019-02-17T12:36:03.313Z,31.84
2019-02-17T12:38:52.979Z,31.94
2019-02-17T12:41:42.895Z,32.20
2019-02-17T12:44:32.452Z,32.21
2019-02-17T12:47:22.371Z,32.22
2019-02-17T12:50:13.584Z,32.12
2019-02-17T12:53:04.773Z,31.91
2019-02-17T12:55:54.935Z,31.61
2019-02-17T12:58:45.244Z,30.83
2019-02-17T13:01:35.078Z,29.90
2019-02-17T13:04:24.814Z,28.36
2019-02-17T13:07:14.784Z,27.55
2019-02-17T13:10:05.128Z,26.84
2019-02-17T13:12:54.778Z,26.26
2019-02-17T13:15:44.854Z,25.67
2019-02-17T13:18:34.841Z,25.16
2019-02-17T13:21:25.102Z,24.81
2019-02-17T13:24:14.997Z,24.34
2019-02-17T13:27:05.036Z,24.04
2019-02-17T13:29:55.758Z,23.70
2019-02-17T13:32:45.661Z,23.38
2019-02-17T13:35:35.452Z,23.15
2019-02-17T13:38:25.569Z,22.93
2019-02-17T13:41:15.370Z,22.76
2019-02-17T13:44:05.545Z,22.59
2019-02-17T13:46:55.079Z,22.53
2019-02-17T13:49:45.203Z,22.56
2019-02-17T13:52:35.065Z,22.73
2019-02-17T13:55:24.775Z,22.81
2019-02-17T13:58:14.750Z,22.82
2019-02-17T14:01:04.598Z,22.79
2019-02-17T14:03:54.356Z,22.70
2019-02-17T14:06:44.186Z,22.60
2019-02-17T14:09:34.533Z,22.56
2019-02-17T14:12:27.224Z,22.45
2019-02-17T14:15:17.506Z,22.38
2019-02-17T14:18:07.261Z,22.22
2019-02-17T14:20:57.454Z,22.11
2019-02-17T14:23:47.437Z,22.02
2019-02-17T14:26:37.280Z,21.96
2019-02-17T14:29:27.015Z,21.84
2019-02-17T14:32:17.078Z,21.79
2019-02-17T14:35:06.565Z,21.72
2019-02-17T14:37:56.620Z,21.65
2019-02-17T14:40:46.436Z,21.63
2019-02-17T14:43:35.752Z,21.53
2019-02-17T14:46:25.407Z,21.50
2019-02-17T14:49:15.149Z,21.47
2019-02-17T14:52:04.975Z,21.38
2019-02-17T14:54:55.013Z,21.32
2019-02-17T14:57:44.738Z,21.26
2019-02-17T15:00:34.744Z,21.19
2019-02-17T15:03:24.656Z,21.11
2019-02-17T15:06:14.635Z,21.03
2019-02-17T15:09:07.089Z,20.96
2019-02-17T15:11:57.753Z,20.91
2019-02-17T15:14:48.032Z,20.89
2019-02-17T15:17:37.788Z,20.82
2019-02-17T15:20:27.574Z,20.79
2019-02-17T15:23:17.124Z,20.69
2019-02-17T15:26:07.291Z,20.60
2019-02-17T15:28:57.329Z,20.54
2019-02-17T15:31:47.214Z,20.48
2019-02-17T15:34:36.714Z,20.39
2019-02-17T15:37:26.793Z,20.29
2019-02-17T15:40:16.002Z,20.25
2019-02-17T15:43:06.072Z,20.16
2019-02-17T15:45:55.900Z,20.08
2019-02-17T15:48:45.730Z,19.99
2019-02-17T15:51:35.923Z,19.87
2019-02-17T15:54:25.957Z,19.76
2019-02-17T15:57:16.033Z,19.61
2019-02-17T16:00:08.040Z,19.47
2019-02-17T16:02:57.930Z,19.33
2019-02-17T16:05:48.021Z,19.21
2019-02-17T16:08:38.192Z,19.10
2019-02-17T16:11:28.001Z,18.98
2019-02-17T16:14:18.178Z,18.85
2019-02-17T16:17:08.493Z,18.71
2019-02-17T16:19:58.509Z,18.58
2019-02-17T16:22:48.517Z,18.43
2019-02-17T16:25:38.389Z,18.30
2019-02-17T16:28:28.421Z,18.13
2019-02-17T16:31:18.104Z,17.90
2019-02-17T16:34:08.140Z,17.72
2019-02-17T16:36:57.860Z,17.53
2019-02-17T16:39:47.194Z,17.34
2019-02-17T16:42:36.820Z,17.16
2019-02-17T16:45:26.077Z,16.95
2019-02-17T16:48:16.069Z,16.77
2019-02-17T16:51:07.024Z,16.60
2019-02-17T16:53:57.440Z,16.43
2019-02-17T16:56:47.482Z,16.24
2019-02-17T16:59:37.331Z,16.08
2019-02-17T17:02:27.427Z,15.93
2019-02-17T17:05:16.969Z,15.76
2019-02-17T17:08:07.025Z,15.60
2019-02-17T17:10:56.401Z,15.42
2019-02-17T17:13:46.208Z,15.28
2019-02-17T17:16:35.684Z,15.12
2019-02-17T17:19:25.746Z,14.99
2019-02-17T17:22:15.030Z,14.89
2019-02-17T17:25:05.741Z,14.79
2019-02-17T17:27:55.216Z,14.72
2019-02-17T17:30:44.821Z,14.60
2019-02-17T17:33:34.550Z,14.51
2019-02-17T17:36:24.013Z,14.43
2019-02-17T17:39:13.996Z,14.33
2019-02-17T17:42:03.919Z,14.20
2019-02-17T17:44:54.373Z,14.08
2019-02-17T17:47:43.973Z,13.95
2019-02-17T17:50:33.974Z,13.83
2019-02-17T17:53:24.092Z,13.68
2019-02-17T17:56:13.759Z,13.56
2019-02-17T17:59:03.533Z,13.44
2019-02-17T18:01:52.897Z,13.34
2019-02-17T18:04:42.923Z,13.21
2019-02-17T18:07:32.629Z,13.12
2019-02-17T18:10:22.508Z,13.01
2019-02-17T18:13:12.536Z,12.92
2019-02-17T18:16:02.598Z,12.80
2019-02-17T18:18:52.615Z,12.70
2019-02-17T18:21:41.991Z,12.57
2019-02-17T18:24:43.692Z,12.46
2019-02-17T18:27:33.637Z,12.35
2019-02-17T18:30:23.715Z,12.23
2019-02-17T18:33:14.006Z,12.14
2019-02-17T18:36:03.665Z,12.07
2019-02-17T18:38:54.114Z,11.99
2019-02-17T18:41:43.682Z,11.92
2019-02-17T18:44:33.716Z,11.88
2019-02-17T18:47:23.340Z,11.82
2019-02-17T18:50:14.100Z,11.76
2019-02-17T18:53:03.288Z,11.67
2019-02-17T18:55:53.065Z,11.59
2019-02-17T18:58:42.285Z,11.47
2019-02-17T19:01:32.106Z,11.39
2019-02-17T19:04:21.805Z,11.30
2019-02-17T19:07:11.692Z,11.25
2019-02-17T19:10:01.617Z,11.22
2019-02-17T19:12:51.472Z,11.16
2019-02-17T19:15:41.147Z,11.14
2019-02-17T19:18:31.161Z,11.09
2019-02-17T19:21:20.945Z,11.02
2019-02-17T19:24:11.050Z,10.94
2019-02-17T19:27:00.898Z,10.86
2019-02-17T19:29:50.735Z,10.80
2019-02-17T19:32:40.646Z,10.72
2019-02-17T19:35:30.623Z,10.72
2019-02-17T19:38:20.209Z,10.74
2019-02-17T19:41:09.938Z,10.77
2019-02-17T19:43:59.756Z,10.83
2019-02-17T19:46:49.707Z,10.87
2019-02-17T19:49:39.723Z,10.87
2019-02-17T19:52:29.964Z,10.96
2019-02-17T19:55:19.700Z,11.07
2019-02-17T19:58:08.995Z,11.19
2019-02-17T20:00:58.282Z,11.30
2019-02-17T20:04:18.413Z,11.40
2019-02-17T20:07:07.702Z,11.47
2019-02-17T20:09:57.537Z,11.53
2019-02-17T20:12:47.209Z,11.57
2019-02-17T20:15:36.883Z,11.61
2019-02-17T20:18:26.189Z,11.62
2019-02-17T20:21:15.606Z,11.55
2019-02-17T20:24:07.986Z,11.47
2019-02-17T20:26:56.973Z,11.40
2019-02-17T20:29:47.099Z,11.30
2019-02-17T20:32:37.331Z,11.26
2019-02-17T20:35:27.228Z,11.18
2019-02-17T20:38:17.277Z,11.13
2019-02-17T20:41:07.038Z,11.08
2019-02-17T20:43:56.812Z,11.06
2019-02-17T20:46:47.147Z,11.03
2019-02-17T20:49:37.235Z,10.97
2019-02-17T20:52:27.104Z,10.90
2019-02-17T20:55:21.665Z,10.86
2019-02-17T20:58:11.760Z,10.79
2019-02-17T21:01:01.834Z,10.74
2019-02-17T21:03:51.623Z,10.67
2019-02-17T21:06:41.917Z,10.64
2019-02-17T21:09:32.573Z,10.67
2019-02-17T21:12:22.657Z,10.67
2019-02-17T21:15:13.266Z,10.67
2019-02-17T21:18:03.366Z,10.73
2019-02-17T21:20:53.133Z,10.77
2019-02-17T21:23:43.057Z,10.82
2019-02-17T21:26:32.580Z,10.90
2019-02-17T21:29:22.442Z,10.96
2019-02-17T21:32:12.384Z,10.97
2019-02-17T21:35:02.471Z,11.06
2019-02-17T21:37:52.458Z,11.11
2019-02-17T21:40:42.519Z,11.18
2019-02-17T21:43:32.100Z,11.18
2019-02-17T21:46:21.852Z,11.19
2019-02-17T21:49:11.768Z,11.22
2019-02-17T21:52:02.351Z,11.27
2019-02-17T21:54:52.357Z,11.22
2019-02-17T21:57:42.550Z,11.21
2019-02-17T22:00:32.166Z,11.23
2019-02-17T22:03:21.688Z,11.27
2019-02-17T22:06:11.949Z,11.23
2019-02-17T22:09:01.439Z,11.26
2019-02-17T22:11:53.241Z,11.19
2019-02-17T22:14:43.347Z,11.22
2019-02-17T22:17:34.483Z,11.19
2019-02-17T22:20:24.520Z,11.18
2019-02-17T22:23:14.590Z,11.16
2019-02-17T22:26:04.319Z,11.12
2019-02-17T22:28:54.371Z,11.09
2019-02-17T22:31:44.265Z,11.05
2019-02-17T22:34:33.980Z,11.02
2019-02-17T22:37:23.738Z,10.95
2019-02-17T22:40:13.493Z,10.85
2019-02-17T22:43:03.117Z,10.74
2019-02-17T22:45:53.300Z,10.63
2019-02-17T22:48:42.891Z,10.55
2019-02-17T22:51:32.714Z,10.44
2019-02-17T22:54:22.808Z,10.36
2019-02-17T22:57:12.154Z,10.31
2019-02-17T23:00:01.836Z,10.25
2019-02-17T23:02:53.464Z,10.16
2019-02-17T23:05:43.899Z,10.09
2019-02-17T23:08:33.920Z,10.05
2019-02-17T23:11:24.077Z,9.96
2019-02-17T23:14:14.423Z,9.90
2019-02-17T23:17:03.970Z,9.88
2019-02-17T23:19:54.120Z,9.87
2019-02-17T23:22:44.215Z,9.88
2019-02-17T23:25:34.589Z,9.88
2019-02-17T23:28:24.637Z,9.89
2019-02-17T23:31:16.961Z,9.85
2019-02-17T23:34:07.012Z,9.82
2019-02-17T23:37:04.001Z,9.81
2019-02-17T23:39:50.524Z,9.77
2019-02-17T23:42:40.493Z,9.69
2019-02-17T23:45:30.314Z,9.63
2019-02-17T23:48:20.101Z,9.59
2019-02-17T23:51:10.178Z,9.54
2019-02-17T23:54:00.456Z,9.49
2019-02-17T23:56:52.358Z,9.50
2019-02-17T23:59:42.130Z,9.46
